Pagrindinis puslapis
METAR-TAF:

METAR-TAF

Oro uostai :

Silvio Pettirossi tarptautinis oro uostas

Asunsjonas, Paragvajus

platuma: 25-16S, ilguma: 057-38W, Aukštis: 101 m

Dabartinis oras

Ataskaita buvo paskelbta 23 minutes, ne 11:00 UTC
Vėjas 2 kt iš Pietų
Temperatūra 20°C
Drėgmė 88%
Slėgis 1016 hPa
Matomumas 10 km arba daugiau
nėra debesų žemiau 1500 m ir nėra kamuolinių lietaus debesų

METAR: SGAS 191100Z 17002KT CAVOK 20/18 Q1016

Laikas: 07:23 (11:23 UTC)

Prognozė

Ataskaita buvo paskelbta 6 valandos ir 23 minutes, ne 05:00 UTC
Prognozė galioja nuo 19 metu 06 UTC su 20 metu 06 UTC
Vėjas 5 kt iš Pietų/Pietryčių
Matomumas 10 km arba daugiau
nėra debesų žemiau 1500 m ir nėra kamuolinių lietaus debesų

TAF: SGAS 190500Z 1906/2006 15005KT CAVOK TX31/1919Z TN18/1910Z

Orai ataskaitas ir orų prognozės (METAR, TAF).

turimą stotys yra geltonos ir raudonos taškus žemėlapyje.

Perkelti pele per norėdami pamatyti stoties vardą.

Tada spustelėkite, norėdami matyti oro stebėjimo ir prognozės.

Norėdami pakeisti žemėlapį: spustelėkite ant žalios mygtukų su juodo kryžiaus žemyn,; žalią mygtuką su brūkšneliu, jei norite nutolinti; arba žalių rodyklių gretimoms žemėlapius.


METAR-TAF: